St. Petersburg Albert Whitted Airport

About
Name: St. Petersburg Albert Whitted Airport
Identifier:  SPG/KSPG
Serves:  St. Petersburg, Florida
Owner:  City of St. Petersburg
Public/Private:  Public
Local Time:  22. Sep 06:13 EDT
Description: Albert Whitted Airport is a public airport in St. Petersburg, Pinellas County, Florida. It is on the west edge of Tampa Bay, just southeast of downtown St. Petersburg and east of the University of South Florida St. Petersburg.
Source: Wikipedia
Location
St. Petersburg
  United States

Runways
Identifier Length (m/ft) Surface
7/25 3,677/3,677 Asphalt
18/36 2,864/2,864 Asphalt
Statistics
Flights per Day:
0 flights
Distance: 220km (136mi)
Flights delayed:
0% (0 flights per day delayed)
Delay Average: 106 minutes
Current Weather
 24 C (Humidity: 83%)
  13kt (24km/h / 14mph) from 40°
  16km (10 mi.)
 
 METAR KSPG 220953Z AUTO 04013KT 10SM CLR 24/21 A3005 RMK AO2 SLP176 T02440206

Current Delays

Departures
N/A
Arrivals
N/A

Destinations

Top Destinations
Airport Flights
per week
Seats
per week
  Daytona Beach (DAB) 0 - 0 0

Airlines & Planes

Top Airlines
Airline Flights
per Day
Seats
per Day
  Novair 0 -
Top Plane Types
Model Flights Seats
Pilatus PC-12 0.0/day - 0